sensor_id;sensor_type;location;lat;lon;timestamp;pressure;altitude;pressure_sealevel;temperature;humidity
20930;BME280;21895;47.072;15.132;2023-03-29T00:02:25;97425.00;;;0.60;59.47
20930;BME280;21895;47.072;15.132;2023-03-29T00:04:58;97413.00;;;0.69;59.32
20930;BME280;21895;47.072;15.132;2023-03-29T00:07:30;97415.00;;;0.94;57.13
20930;BME280;21895;47.072;15.132;2023-03-29T00:09:59;97409.00;;;0.97;57.62
20930;BME280;21895;47.072;15.132;2023-03-29T00:12:26;97422.00;;;0.82;58.12
20930;BME280;21895;47.072;15.132;2023-03-29T00:14:53;97420.00;;;0.63;58.76
20930;BME280;21895;47.072;15.132;2023-03-29T00:17:19;97421.00;;;0.38;60.25
20930;BME280;21895;47.072;15.132;2023-03-29T00:19:46;97421.00;;;0.20;61.15
20930;BME280;21895;47.072;15.132;2023-03-29T00:22:13;97419.00;;;0.32;60.24
20930;BME280;21895;47.072;15.132;2023-03-29T00:24:40;97422.00;;;0.35;59.96
20930;BME280;21895;47.072;15.132;2023-03-29T00:27:07;97423.00;;;0.23;59.92
20930;BME280;21895;47.072;15.132;2023-03-29T00:29:33;97426.00;;;0.28;60.17
20930;BME280;21895;47.072;15.132;2023-03-29T00:32:00;97413.00;;;0.30;61.43
20930;BME280;21895;47.072;15.132;2023-03-29T00:34:27;97424.00;;;0.25;60.93
20930;BME280;21895;47.072;15.132;2023-03-29T00:36:57;97415.00;;;0.37;59.40
20930;BME280;21895;47.072;15.132;2023-03-29T00:39:25;97413.00;;;0.34;59.17
20930;BME280;21895;47.072;15.132;2023-03-29T00:41:53;97413.00;;;0.50;58.88
20930;BME280;21895;47.072;15.132;2023-03-29T00:48:05;97406.00;;;0.25;59.46
20930;BME280;21895;47.072;15.132;2023-03-29T00:51:07;97396.00;;;0.18;59.62
20930;BME280;21895;47.072;15.132;2023-03-29T00:53:42;97388.00;;;0.24;60.58
20930;BME280;21895;47.072;15.132;2023-03-29T00:56:24;97394.00;;;0.21;60.33
20930;BME280;21895;47.072;15.132;2023-03-29T00:59:17;97402.00;;;0.41;60.55
20930;BME280;21895;47.072;15.132;2023-03-29T01:02:07;97388.00;;;0.32;62.10
20930;BME280;21895;47.072;15.132;2023-03-29T01:04:52;97392.00;;;0.15;62.30
20930;BME280;21895;47.072;15.132;2023-03-29T01:08:19;97390.00;;;0.20;62.00
20930;BME280;21895;47.072;15.132;2023-03-29T01:11:13;97393.00;;;0.29;61.92
20930;BME280;21895;47.072;15.132;2023-03-29T01:13:58;97386.00;;;0.35;61.06
20930;BME280;21895;47.072;15.132;2023-03-29T01:16:30;97384.00;;;0.50;61.47
20930;BME280;21895;47.072;15.132;2023-03-29T01:18:59;97383.00;;;0.55;62.13
20930;BME280;21895;47.072;15.132;2023-03-29T01:22:53;97376.00;;;0.49;61.91
20930;BME280;21895;47.072;15.132;2023-03-29T01:25:46;97386.00;;;0.36;63.47
20930;BME280;21895;47.072;15.132;2023-03-29T01:28:28;97382.00;;;0.39;64.02
20930;BME280;21895;47.072;15.132;2023-03-29T01:31:21;97383.00;;;0.55;63.51
20930;BME280;21895;47.072;15.132;2023-03-29T01:33:57;97376.00;;;0.46;63.44
20930;BME280;21895;47.072;15.132;2023-03-29T01:36:47;97378.00;;;0.34;62.92
20930;BME280;21895;47.072;15.132;2023-03-29T01:39:16;97378.00;;;0.25;62.41
20930;BME280;21895;47.072;15.132;2023-03-29T01:45:30;97385.00;;;0.12;63.24
20930;BME280;21895;47.072;15.132;2023-03-29T01:49:59;97385.00;;;0.32;63.36
20930;BME280;21895;47.072;15.132;2023-03-29T01:52:44;97391.00;;;0.35;63.20
20930;BME280;21895;47.072;15.132;2023-03-29T01:55:26;97396.00;;;0.44;62.63
20930;BME280;21895;47.072;15.132;2023-03-29T01:57:57;97397.00;;;0.36;62.91
20930;BME280;21895;47.072;15.132;2023-03-29T02:00:26;97393.00;;;0.40;63.48
20930;BME280;21895;47.072;15.132;2023-03-29T02:02:59;97399.00;;;0.37;63.91
20930;BME280;21895;47.072;15.132;2023-03-29T02:05:29;97404.00;;;0.47;63.99
20930;BME280;21895;47.072;15.132;2023-03-29T02:07:59;97399.00;;;0.47;63.79
20930;BME280;21895;47.072;15.132;2023-03-29T02:10:27;97403.00;;;0.51;63.61
20930;BME280;21895;47.072;15.132;2023-03-29T02:12:54;97408.00;;;0.56;63.23
20930;BME280;21895;47.072;15.132;2023-03-29T02:15:22;97410.00;;;0.59;63.19
20930;BME280;21895;47.072;15.132;2023-03-29T02:17:49;97407.00;;;0.78;61.24
20930;BME280;21895;47.072;15.132;2023-03-29T02:20:32;97408.00;;;0.99;59.59
20930;BME280;21895;47.072;15.132;2023-03-29T02:23:40;97407.00;;;0.84;60.29
20930;BME280;21895;47.072;15.132;2023-03-29T02:26:11;97411.00;;;0.93;61.60
20930;BME280;21895;47.072;15.132;2023-03-29T02:28:40;97414.00;;;0.81;62.05
20930;BME280;21895;47.072;15.132;2023-03-29T02:32:15;97408.00;;;0.83;62.27
20930;BME280;21895;47.072;15.132;2023-03-29T02:34:57;97406.00;;;0.90;62.67
20930;BME280;21895;47.072;15.132;2023-03-29T02:37:30;97403.00;;;0.87;63.10
20930;BME280;21895;47.072;15.132;2023-03-29T02:40:00;97405.00;;;0.83;63.29
20930;BME280;21895;47.072;15.132;2023-03-29T02:42:40;97408.00;;;0.78;63.96
20930;BME280;21895;47.072;15.132;2023-03-29T02:45:13;97411.00;;;0.77;62.32
20930;BME280;21895;47.072;15.132;2023-03-29T02:47:49;97399.00;;;0.76;62.04
20930;BME280;21895;47.072;15.132;2023-03-29T02:50:19;97401.00;;;0.84;63.38
20930;BME280;21895;47.072;15.132;2023-03-29T02:52:54;97411.00;;;0.84;63.21
20930;BME280;21895;47.072;15.132;2023-03-29T02:55:26;97406.00;;;0.88;63.34
20930;BME280;21895;47.072;15.132;2023-03-29T02:58:01;97410.00;;;0.86;63.71
20930;BME280;21895;47.072;15.132;2023-03-29T03:00:46;97405.00;;;0.96;63.69
20930;BME280;21895;47.072;15.132;2023-03-29T03:03:14;97414.00;;;1.11;63.80
20930;BME280;21895;47.072;15.132;2023-03-29T03:05:40;97407.00;;;1.05;63.27
20930;BME280;21895;47.072;15.132;2023-03-29T03:08:08;97407.00;;;1.07;62.19
20930;BME280;21895;47.072;15.132;2023-03-29T03:10:35;97417.00;;;1.22;62.40
20930;BME280;21895;47.072;15.132;2023-03-29T03:13:02;97418.00;;;1.27;63.07
20930;BME280;21895;47.072;15.132;2023-03-29T03:15:28;97413.00;;;1.24;63.18
20930;BME280;21895;47.072;15.132;2023-03-29T03:17:56;97413.00;;;1.24;62.56
20930;BME280;21895;47.072;15.132;2023-03-29T03:20:22;97412.00;;;1.36;60.89
20930;BME280;21895;47.072;15.132;2023-03-29T03:22:49;97405.00;;;1.38;60.97
20930;BME280;21895;47.072;15.132;2023-03-29T03:25:20;97408.00;;;1.50;61.18
20930;BME280;21895;47.072;15.132;2023-03-29T03:27:48;97407.00;;;1.43;61.13
20930;BME280;21895;47.072;15.132;2023-03-29T03:30:16;97413.00;;;1.40;60.71
20930;BME280;21895;47.072;15.132;2023-03-29T03:32:43;97404.00;;;1.48;60.56
20930;BME280;21895;47.072;15.132;2023-03-29T03:35:10;97395.00;;;1.55;60.01
20930;BME280;21895;47.072;15.132;2023-03-29T03:37:37;97396.00;;;1.35;59.75
20930;BME280;21895;47.072;15.132;2023-03-29T03:40:06;97394.00;;;1.25;60.74
20930;BME280;21895;47.072;15.132;2023-03-29T03:42:34;97388.00;;;1.21;62.59
20930;BME280;21895;47.072;15.132;2023-03-29T03:45:00;97389.00;;;1.35;62.04
20930;BME280;21895;47.072;15.132;2023-03-29T03:47:27;97386.00;;;1.17;62.77
20930;BME280;21895;47.072;15.132;2023-03-29T03:49:54;97382.00;;;1.19;63.01
20930;BME280;21895;47.072;15.132;2023-03-29T03:52:21;97374.00;;;1.35;62.92
20930;BME280;21895;47.072;15.132;2023-03-29T03:54:47;97367.00;;;1.45;63.32
20930;BME280;21895;47.072;15.132;2023-03-29T03:57:15;97357.00;;;1.25;63.74
20930;BME280;21895;47.072;15.132;2023-03-29T03:59:42;97350.00;;;1.32;61.86
20930;BME280;21895;47.072;15.132;2023-03-29T04:02:08;97346.00;;;1.49;61.51
20930;BME280;21895;47.072;15.132;2023-03-29T04:04:35;97346.00;;;1.55;62.44
20930;BME280;21895;47.072;15.132;2023-03-29T04:07:02;97348.00;;;1.58;62.47
20930;BME280;21895;47.072;15.132;2023-03-29T04:09:30;97346.00;;;1.61;61.84
20930;BME280;21895;47.072;15.132;2023-03-29T04:11:59;97343.00;;;1.57;62.04
20930;BME280;21895;47.072;15.132;2023-03-29T04:14:26;97352.00;;;1.70;61.32
20930;BME280;21895;47.072;15.132;2023-03-29T04:16:54;97342.00;;;1.64;60.26
20930;BME280;21895;47.072;15.132;2023-03-29T04:19:20;97340.00;;;1.70;59.76
20930;BME280;21895;47.072;15.132;2023-03-29T04:21:47;97335.00;;;1.71;59.25
20930;BME280;21895;47.072;15.132;2023-03-29T04:24:15;97331.00;;;1.80;58.80
20930;BME280;21895;47.072;15.132;2023-03-29T04:26:43;97330.00;;;1.83;57.90
20930;BME280;21895;47.072;15.132;2023-03-29T04:29:09;97339.00;;;1.95;58.80
20930;BME280;21895;47.072;15.132;2023-03-29T04:31:36;97342.00;;;2.07;59.87
20930;BME280;21895;47.072;15.132;2023-03-29T04:34:02;97346.00;;;2.00;60.06
20930;BME280;21895;47.072;15.132;2023-03-29T04:36:29;97352.00;;;1.90;60.19
20930;BME280;21895;47.072;15.132;2023-03-29T04:38:56;97345.00;;;1.84;60.40
20930;BME280;21895;47.072;15.132;2023-03-29T04:41:23;97342.00;;;2.00;60.28
20930;BME280;21895;47.072;15.132;2023-03-29T04:43:50;97335.00;;;1.96;60.83
20930;BME280;21895;47.072;15.132;2023-03-29T04:46:17;97334.00;;;2.00;60.01
20930;BME280;21895;47.072;15.132;2023-03-29T04:48:43;97335.00;;;1.84;61.09
20930;BME280;21895;47.072;15.132;2023-03-29T04:51:10;97336.00;;;1.98;60.89
20930;BME280;21895;47.072;15.132;2023-03-29T04:53:36;97334.00;;;1.87;60.27
20930;BME280;21895;47.072;15.132;2023-03-29T04:56:03;97332.00;;;1.79;61.77
20930;BME280;21895;47.072;15.132;2023-03-29T04:58:30;97330.00;;;1.77;61.02
20930;BME280;21895;47.072;15.132;2023-03-29T05:00:58;97328.00;;;1.70;60.84
20930;BME280;21895;47.072;15.132;2023-03-29T05:03:25;97332.00;;;1.82;61.11
20930;BME280;21895;47.072;15.132;2023-03-29T05:05:52;97330.00;;;1.87;60.50
20930;BME280;21895;47.072;15.132;2023-03-29T05:08:19;97332.00;;;1.91;60.34
20930;BME280;21895;47.072;15.132;2023-03-29T05:10:45;97333.00;;;2.00;60.10
20930;BME280;21895;47.072;15.132;2023-03-29T05:13:12;97325.00;;;1.95;60.32
20930;BME280;21895;47.072;15.132;2023-03-29T05:15:40;97331.00;;;2.03;60.55
20930;BME280;21895;47.072;15.132;2023-03-29T05:18:07;97326.00;;;2.10;60.01
20930;BME280;21895;47.072;15.132;2023-03-29T05:20:33;97334.00;;;2.08;59.69
20930;BME280;21895;47.072;15.132;2023-03-29T05:23:00;97330.00;;;2.17;59.74
20930;BME280;21895;47.072;15.132;2023-03-29T05:25:26;97326.00;;;2.30;59.35
20930;BME280;21895;47.072;15.132;2023-03-29T05:27:53;97322.00;;;2.27;59.06
20930;BME280;21895;47.072;15.132;2023-03-29T05:30:19;97321.00;;;2.43;58.99
20930;BME280;21895;47.072;15.132;2023-03-29T05:32:46;97319.00;;;2.51;58.36
20930;BME280;21895;47.072;15.132;2023-03-29T05:35:13;97326.00;;;2.63;59.54
20930;BME280;21895;47.072;15.132;2023-03-29T05:37:39;97330.00;;;2.55;60.50
20930;BME280;21895;47.072;15.132;2023-03-29T05:40:07;97335.00;;;2.42;60.52
20930;BME280;21895;47.072;15.132;2023-03-29T05:42:35;97338.00;;;2.38;60.66
20930;BME280;21895;47.072;15.132;2023-03-29T05:45:03;97345.00;;;2.43;60.78
20930;BME280;21895;47.072;15.132;2023-03-29T05:47:30;97342.00;;;2.34;61.59
20930;BME280;21895;47.072;15.132;2023-03-29T05:49:57;97346.00;;;2.51;61.47
20930;BME280;21895;47.072;15.132;2023-03-29T05:52:23;97337.00;;;2.48;61.00
20930;BME280;21895;47.072;15.132;2023-03-29T05:54:50;97340.00;;;2.53;58.88
20930;BME280;21895;47.072;15.132;2023-03-29T05:57:16;97336.00;;;2.52;59.02
20930;BME280;21895;47.072;15.132;2023-03-29T05:59:43;97327.00;;;2.56;60.59
20930;BME280;21895;47.072;15.132;2023-03-29T06:02:11;97325.00;;;2.58;61.05
20930;BME280;21895;47.072;15.132;2023-03-29T06:04:37;97327.00;;;2.62;60.33
20930;BME280;21895;47.072;15.132;2023-03-29T06:07:05;97312.00;;;2.55;60.45
20930;BME280;21895;47.072;15.132;2023-03-29T06:09:32;97315.00;;;2.68;59.96
20930;BME280;21895;47.072;15.132;2023-03-29T06:11:58;97319.00;;;2.74;59.71
20930;BME280;21895;47.072;15.132;2023-03-29T06:14:26;97322.00;;;2.86;59.42
20930;BME280;21895;47.072;15.132;2023-03-29T06:16:54;97319.00;;;2.87;59.34
20930;BME280;21895;47.072;15.132;2023-03-29T06:19:21;97313.00;;;3.06;59.22
20930;BME280;21895;47.072;15.132;2023-03-29T06:21:48;97323.00;;;3.22;58.06
20930;BME280;21895;47.072;15.132;2023-03-29T06:24:14;97320.00;;;3.37;57.57
20930;BME280;21895;47.072;15.132;2023-03-29T06:26:41;97316.00;;;3.44;56.09
20930;BME280;21895;47.072;15.132;2023-03-29T06:29:08;97323.00;;;3.50;56.22
20930;BME280;21895;47.072;15.132;2023-03-29T06:31:34;97319.00;;;3.43;56.20
20930;BME280;21895;47.072;15.132;2023-03-29T06:34:01;97310.00;;;3.50;55.55
20930;BME280;21895;47.072;15.132;2023-03-29T06:36:30;97314.00;;;3.63;55.58
20930;BME280;21895;47.072;15.132;2023-03-29T06:38:59;97317.00;;;3.82;54.89
20930;BME280;21895;47.072;15.132;2023-03-29T06:41:26;97314.00;;;4.05;55.36
20930;BME280;21895;47.072;15.132;2023-03-29T06:43:52;97317.00;;;4.14;55.11
20930;BME280;21895;47.072;15.132;2023-03-29T06:46:19;97308.00;;;4.21;54.33
20930;BME280;21895;47.072;15.132;2023-03-29T06:48:46;97306.00;;;4.40;54.08
20930;BME280;21895;47.072;15.132;2023-03-29T06:51:13;97308.00;;;4.46;52.84
20930;BME280;21895;47.072;15.132;2023-03-29T06:53:39;97307.00;;;4.50;52.98
20930;BME280;21895;47.072;15.132;2023-03-29T06:56:07;97295.00;;;4.62;53.45
20930;BME280;21895;47.072;15.132;2023-03-29T06:58:35;97302.00;;;4.74;52.84
20930;BME280;21895;47.072;15.132;2023-03-29T07:01:02;97294.00;;;5.04;52.51
20930;BME280;21895;47.072;15.132;2023-03-29T07:03:29;97299.00;;;5.02;53.03
20930;BME280;21895;47.072;15.132;2023-03-29T07:06:01;97300.00;;;5.06;53.30
20930;BME280;21895;47.072;15.132;2023-03-29T07:08:29;97292.00;;;5.19;52.25
20930;BME280;21895;47.072;15.132;2023-03-29T07:10:57;97300.00;;;5.33;51.27
20930;BME280;21895;47.072;15.132;2023-03-29T07:13:24;97299.00;;;5.47;50.52
20930;BME280;21895;47.072;15.132;2023-03-29T07:15:51;97300.00;;;5.33;50.42
20930;BME280;21895;47.072;15.132;2023-03-29T07:18:18;97307.00;;;5.39;50.59
20930;BME280;21895;47.072;15.132;2023-03-29T07:20:45;97300.00;;;5.47;49.97
20930;BME280;21895;47.072;15.132;2023-03-29T07:23:13;97298.00;;;5.53;49.66
20930;BME280;21895;47.072;15.132;2023-03-29T07:25:40;97306.00;;;5.51;49.52
20930;BME280;21895;47.072;15.132;2023-03-29T07:28:06;97309.00;;;5.51;49.30
20930;BME280;21895;47.072;15.132;2023-03-29T07:30:33;97316.00;;;5.48;49.76
20930;BME280;21895;47.072;15.132;2023-03-29T07:33:00;97319.00;;;5.52;49.76
20930;BME280;21895;47.072;15.132;2023-03-29T07:35:27;97313.00;;;5.62;49.75
20930;BME280;21895;47.072;15.132;2023-03-29T07:37:53;97296.00;;;5.78;49.64
20930;BME280;21895;47.072;15.132;2023-03-29T07:40:21;97305.00;;;5.90;49.40
20930;BME280;21895;47.072;15.132;2023-03-29T07:42:52;97313.00;;;6.05;49.35
20930;BME280;21895;47.072;15.132;2023-03-29T07:45:21;97320.00;;;5.99;48.65
20930;BME280;21895;47.072;15.132;2023-03-29T07:47:58;97329.00;;;6.05;49.30
20930;BME280;21895;47.072;15.132;2023-03-29T07:50:26;97329.00;;;6.23;49.14
20930;BME280;21895;47.072;15.132;2023-03-29T07:52:53;97332.00;;;6.36;47.82
20930;BME280;21895;47.072;15.132;2023-03-29T07:55:20;97323.00;;;6.47;46.87
20930;BME280;21895;47.072;15.132;2023-03-29T07:57:48;97318.00;;;6.64;45.65
20930;BME280;21895;47.072;15.132;2023-03-29T08:00:16;97324.00;;;6.74;45.58
20930;BME280;21895;47.072;15.132;2023-03-29T08:02:49;97327.00;;;6.66;46.31
20930;BME280;21895;47.072;15.132;2023-03-29T08:05:19;97325.00;;;6.71;47.38
20930;BME280;21895;47.072;15.132;2023-03-29T08:08:04;97324.00;;;6.79;46.63
20930;BME280;21895;47.072;15.132;2023-03-29T08:10:31;97331.00;;;7.03;46.75
20930;BME280;21895;47.072;15.132;2023-03-29T08:12:59;97333.00;;;7.05;46.37
20930;BME280;21895;47.072;15.132;2023-03-29T08:15:28;97324.00;;;7.04;44.34
20930;BME280;21895;47.072;15.132;2023-03-29T08:17:55;97320.00;;;7.06;45.32
20930;BME280;21895;47.072;15.132;2023-03-29T08:20:22;97328.00;;;7.24;44.92
20930;BME280;21895;47.072;15.132;2023-03-29T08:22:48;97327.00;;;7.27;45.05
20930;BME280;21895;47.072;15.132;2023-03-29T08:25:15;97323.00;;;7.23;44.41
20930;BME280;21895;47.072;15.132;2023-03-29T08:27:41;97327.00;;;7.17;44.74
20930;BME280;21895;47.072;15.132;2023-03-29T08:30:09;97321.00;;;7.25;44.39
20930;BME280;21895;47.072;15.132;2023-03-29T08:32:36;97324.00;;;7.35;44.73
20930;BME280;21895;47.072;15.132;2023-03-29T08:35:05;97328.00;;;7.36;43.89
20930;BME280;21895;47.072;15.132;2023-03-29T08:37:32;97316.00;;;7.25;44.07
20930;BME280;21895;47.072;15.132;2023-03-29T08:39:59;97322.00;;;7.43;43.78
20930;BME280;21895;47.072;15.132;2023-03-29T08:43:02;97324.00;;;7.53;44.55
20930;BME280;21895;47.072;15.132;2023-03-29T08:46:25;97323.00;;;7.60;44.12
20930;BME280;21895;47.072;15.132;2023-03-29T08:49:03;97315.00;;;7.76;43.38
20930;BME280;21895;47.072;15.132;2023-03-29T08:51:42;97327.00;;;8.01;42.18
20930;BME280;21895;47.072;15.132;2023-03-29T08:54:28;97318.00;;;8.16;42.68
20930;BME280;21895;47.072;15.132;2023-03-29T08:57:11;97318.00;;;8.11;42.36
20930;BME280;21895;47.072;15.132;2023-03-29T08:59:40;97317.00;;;8.27;42.37
20930;BME280;21895;47.072;15.132;2023-03-29T09:02:18;97314.00;;;8.30;43.05
20930;BME280;21895;47.072;15.132;2023-03-29T09:04:47;97308.00;;;8.41;42.35
20930;BME280;21895;47.072;15.132;2023-03-29T09:07:15;97308.00;;;8.49;42.08
20930;BME280;21895;47.072;15.132;2023-03-29T09:09:42;97315.00;;;8.60;40.96
20930;BME280;21895;47.072;15.132;2023-03-29T09:12:47;97301.00;;;8.66;41.10
20930;BME280;21895;47.072;15.132;2023-03-29T09:15:29;97314.00;;;8.53;41.14
20930;BME280;21895;47.072;15.132;2023-03-29T09:20:59;97311.00;;;8.69;41.09
20930;BME280;21895;47.072;15.132;2023-03-29T09:25:17;97306.00;;;8.83;38.86
20930;BME280;21895;47.072;15.132;2023-03-29T09:28:12;97296.00;;;8.86;39.51
20930;BME280;21895;47.072;15.132;2023-03-29T09:35:53;97299.00;;;9.07;39.95
20930;BME280;21895;47.072;15.132;2023-03-29T09:38:23;97299.00;;;9.33;36.29
20930;BME280;21895;47.072;15.132;2023-03-29T09:40:58;97303.00;;;9.34;35.87
20930;BME280;21895;47.072;15.132;2023-03-29T09:43:37;97301.00;;;9.28;38.42
20930;BME280;21895;47.072;15.132;2023-03-29T09:46:20;97299.00;;;9.36;37.81
20930;BME280;21895;47.072;15.132;2023-03-29T09:48:49;97299.00;;;9.30;38.99
20930;BME280;21895;47.072;15.132;2023-03-29T09:51:20;97309.00;;;9.33;37.62
20930;BME280;21895;47.072;15.132;2023-03-29T09:53:48;97299.00;;;9.36;37.68
20930;BME280;21895;47.072;15.132;2023-03-29T09:56:15;97302.00;;;9.38;37.87
20930;BME280;21895;47.072;15.132;2023-03-29T09:58:44;97299.00;;;9.40;36.77
20930;BME280;21895;47.072;15.132;2023-03-29T10:01:15;97286.00;;;9.45;36.71
20930;BME280;21895;47.072;15.132;2023-03-29T10:03:49;97292.00;;;9.63;36.36
20930;BME280;21895;47.072;15.132;2023-03-29T10:06:19;97295.00;;;9.54;36.28
20930;BME280;21895;47.072;15.132;2023-03-29T10:08:52;97277.00;;;9.69;36.71
20930;BME280;21895;47.072;15.132;2023-03-29T10:11:35;97282.00;;;9.87;37.21
20930;BME280;21895;47.072;15.132;2023-03-29T10:14:43;97276.00;;;9.85;36.08
20930;BME280;21895;47.072;15.132;2023-03-29T10:17:21;97286.00;;;9.88;36.00
20930;BME280;21895;47.072;15.132;2023-03-29T10:19:56;97283.00;;;10.00;35.72
20930;BME280;21895;47.072;15.132;2023-03-29T10:22:26;97285.00;;;9.98;35.12
20930;BME280;21895;47.072;15.132;2023-03-29T10:24:57;97284.00;;;10.03;34.57
20930;BME280;21895;47.072;15.132;2023-03-29T10:27:27;97283.00;;;9.85;34.56
20930;BME280;21895;47.072;15.132;2023-03-29T10:29:57;97282.00;;;9.76;36.11
20930;BME280;21895;47.072;15.132;2023-03-29T10:32:36;97271.00;;;9.62;37.08
20930;BME280;21895;47.072;15.132;2023-03-29T10:35:33;97271.00;;;9.71;36.36
20930;BME280;21895;47.072;15.132;2023-03-29T10:38:09;97264.00;;;9.81;36.55
20930;BME280;21895;47.072;15.132;2023-03-29T10:40:51;97264.00;;;9.99;35.54
20930;BME280;21895;47.072;15.132;2023-03-29T10:43:42;97255.00;;;10.09;35.36
20930;BME280;21895;47.072;15.132;2023-03-29T10:46:39;97253.00;;;10.29;35.44
20930;BME280;21895;47.072;15.132;2023-03-29T10:49:18;97258.00;;;10.21;34.17
20930;BME280;21895;47.072;15.132;2023-03-29T10:51:48;97253.00;;;10.34;34.23
20930;BME280;21895;47.072;15.132;2023-03-29T10:54:18;97249.00;;;10.38;35.00
20930;BME280;21895;47.072;15.132;2023-03-29T10:56:54;97256.00;;;10.31;33.86
20930;BME280;21895;47.072;15.132;2023-03-29T10:59:48;97246.00;;;10.53;34.00
20930;BME280;21895;47.072;15.132;2023-03-29T11:04:19;97253.00;;;10.67;32.42
20930;BME280;21895;47.072;15.132;2023-03-29T11:12:41;97246.00;;;10.66;33.47
20930;BME280;21895;47.072;15.132;2023-03-29T11:19:15;97234.00;;;11.17;33.74
20930;BME280;21895;47.072;15.132;2023-03-29T11:22:52;97230.00;;;11.60;32.44
20930;BME280;21895;47.072;15.132;2023-03-29T11:31:17;97221.00;;;11.57;31.52
20930;BME280;21895;47.072;15.132;2023-03-29T11:34:36;97221.00;;;11.81;31.64
20930;BME280;21895;47.072;15.132;2023-03-29T11:37:57;97208.00;;;11.59;32.39
20930;BME280;21895;47.072;15.132;2023-03-29T11:41:47;97201.00;;;11.62;32.43
20930;BME280;21895;47.072;15.132;2023-03-29T11:44:53;97202.00;;;12.06;30.63
20930;BME280;21895;47.072;15.132;2023-03-29T11:47:23;97195.00;;;12.18;29.82
20930;BME280;21895;47.072;15.132;2023-03-29T11:51:48;97184.00;;;12.28;31.10
20930;BME280;21895;47.072;15.132;2023-03-29T11:55:18;97186.00;;;12.46;30.07
20930;BME280;21895;47.072;15.132;2023-03-29T11:58:33;97172.00;;;12.66;29.90
20930;BME280;21895;47.072;15.132;2023-03-29T12:01:11;97167.00;;;12.91;31.06
20930;BME280;21895;47.072;15.132;2023-03-29T12:03:55;97171.00;;;13.17;30.75
20930;BME280;21895;47.072;15.132;2023-03-29T12:07:00;97165.00;;;13.30;29.91
20930;BME280;21895;47.072;15.132;2023-03-29T12:09:50;97164.00;;;13.13;29.55
20930;BME280;21895;47.072;15.132;2023-03-29T12:14:09;97162.00;;;12.69;29.23
20930;BME280;21895;47.072;15.132;2023-03-29T12:16:51;97168.00;;;12.18;30.15
20930;BME280;21895;47.072;15.132;2023-03-29T12:19:29;97154.00;;;12.29;29.78
20930;BME280;21895;47.072;15.132;2023-03-29T12:21:58;97151.00;;;12.24;29.91
20930;BME280;21895;47.072;15.132;2023-03-29T12:24:29;97144.00;;;12.28;32.06
20930;BME280;21895;47.072;15.132;2023-03-29T12:27:37;97144.00;;;12.48;30.83
20930;BME280;21895;47.072;15.132;2023-03-29T12:32:49;97138.00;;;12.49;30.52
20930;BME280;21895;47.072;15.132;2023-03-29T12:36:20;97133.00;;;13.02;29.46
20930;BME280;21895;47.072;15.132;2023-03-29T12:38:56;97127.00;;;13.33;29.26
20930;BME280;21895;47.072;15.132;2023-03-29T12:41:23;97128.00;;;13.25;30.24
20930;BME280;21895;47.072;15.132;2023-03-29T12:43:50;97129.00;;;13.19;28.57
20930;BME280;21895;47.072;15.132;2023-03-29T12:46:30;97132.00;;;13.04;30.84
20930;BME280;21895;47.072;15.132;2023-03-29T12:49:27;97133.00;;;13.25;28.93
20930;BME280;21895;47.072;15.132;2023-03-29T12:51:58;97131.00;;;13.34;28.18
20930;BME280;21895;47.072;15.132;2023-03-29T12:54:30;97134.00;;;13.29;29.24
20930;BME280;21895;47.072;15.132;2023-03-29T12:57:23;97144.00;;;13.14;29.02
20930;BME280;21895;47.072;15.132;2023-03-29T12:59:51;97137.00;;;12.81;28.30
20930;BME280;21895;47.072;15.132;2023-03-29T13:02:32;97126.00;;;12.69;28.84
20930;BME280;21895;47.072;15.132;2023-03-29T13:05:00;97131.00;;;12.77;28.87
20930;BME280;21895;47.072;15.132;2023-03-29T13:07:43;97128.00;;;12.51;30.05
20930;BME280;21895;47.072;15.132;2023-03-29T13:10:38;97126.00;;;12.54;30.40
20930;BME280;21895;47.072;15.132;2023-03-29T13:13:25;97112.00;;;12.43;29.86
20930;BME280;21895;47.072;15.132;2023-03-29T13:15:53;97111.00;;;12.76;29.84
20930;BME280;21895;47.072;15.132;2023-03-29T13:19:02;97111.00;;;12.73;30.15
20930;BME280;21895;47.072;15.132;2023-03-29T13:31:38;97112.00;;;13.11;29.25
20930;BME280;21895;47.072;15.132;2023-03-29T13:35:53;97099.00;;;12.99;30.58
20930;BME280;21895;47.072;15.132;2023-03-29T13:38:26;97099.00;;;12.99;30.26
20930;BME280;21895;47.072;15.132;2023-03-29T13:44:27;97091.00;;;12.50;30.96
20930;BME280;21895;47.072;15.132;2023-03-29T13:47:48;97093.00;;;12.50;30.81
20930;BME280;21895;47.072;15.132;2023-03-29T13:50:52;97091.00;;;12.55;30.89
20930;BME280;21895;47.072;15.132;2023-03-29T13:55:06;97078.00;;;12.37;31.16
20930;BME280;21895;47.072;15.132;2023-03-29T14:01:38;97090.00;;;12.14;30.77
20930;BME280;21895;47.072;15.132;2023-03-29T14:04:18;97087.00;;;12.34;30.89
20930;BME280;21895;47.072;15.132;2023-03-29T14:06:52;97072.00;;;12.35;31.33
20930;BME280;21895;47.072;15.132;2023-03-29T14:09:27;97068.00;;;12.63;31.31
20930;BME280;21895;47.072;15.132;2023-03-29T14:11:58;97061.00;;;12.70;29.56
20930;BME280;21895;47.072;15.132;2023-03-29T14:14:28;97065.00;;;12.74;30.55
20930;BME280;21895;47.072;15.132;2023-03-29T14:16:56;97063.00;;;12.61;30.64
20930;BME280;21895;47.072;15.132;2023-03-29T14:19:34;97070.00;;;12.28;29.68
20930;BME280;21895;47.072;15.132;2023-03-29T14:22:11;97058.00;;;12.02;30.21
20930;BME280;21895;47.072;15.132;2023-03-29T14:24:53;97060.00;;;11.77;31.37
20930;BME280;21895;47.072;15.132;2023-03-29T14:27:22;97056.00;;;11.48;31.89
20930;BME280;21895;47.072;15.132;2023-03-29T14:29:50;97052.00;;;11.39;31.18
20930;BME280;21895;47.072;15.132;2023-03-29T14:32:27;97050.00;;;11.34;31.62
20930;BME280;21895;47.072;15.132;2023-03-29T14:34:53;97053.00;;;11.29;32.01
20930;BME280;21895;47.072;15.132;2023-03-29T14:37:28;97052.00;;;11.29;32.40
20930;BME280;21895;47.072;15.132;2023-03-29T14:39:57;97054.00;;;11.57;32.30
20930;BME280;21895;47.072;15.132;2023-03-29T14:42:27;97049.00;;;11.69;33.02